National Weather Service Raw Text Product

Displaying AFOS PIL: TAFMCW Received: 2018-05-17 05:20 UTC


352 
FTUS43 KDMX 170520
TAFMCW
TAF
KMCW 170520Z 1706/1806 VRB03KT P6SM SKC
     FM171900 15007KT P6SM FEW240=

352 
FTUS43 KDMX 170520
TAFMCW
TAF
KMCW 170520Z 1706/1806 VRB03KT P6SM SKC
     FM171900 15007KT P6SM FEW240=